Terminal Aerodrome Forecast
Issued by NWS

Home | Current Version | Previous Version | Text Only | Print | Product List | Glossary Off
Versions: 1 2 3 4 5 6 7 8 9 10 11 12 13

000
FTUS43 KFGF 241729
TAFBJI
TAF
KBJI 241729Z 2418/2518 34012G20KT P6SM SKC
     FM242200 36007KT P6SM SKC
     FM250400 VRB03KT P6SM SKC
     FM251400 21007KT P6SM SKC=

USA.gov is the U.S. government's official web portal to all federal, state and local government web resources and services.